createdAt,value
2019-04-27T00:00:00.769Z,15.27
2019-04-27T00:03:07.802Z,15.20
2019-04-27T00:06:13.435Z,15.14
2019-04-27T00:09:22.946Z,15.06
2019-04-27T00:12:26.544Z,15.01
2019-04-27T00:15:47.257Z,14.88
2019-04-27T00:18:56.347Z,14.77
2019-04-27T00:22:03.743Z,14.64
2019-04-27T00:25:06.053Z,14.60
2019-04-27T00:28:08.008Z,14.51
2019-04-27T00:31:10.024Z,14.51
2019-04-27T00:34:13.358Z,14.50
2019-04-27T00:37:26.374Z,14.49
2019-04-27T00:40:33.525Z,14.48
2019-04-27T00:43:35.812Z,14.35
2019-04-27T00:46:37.854Z,14.33
2019-04-27T00:49:39.808Z,14.34
2019-04-27T00:52:42.954Z,14.31
2019-04-27T00:55:49.668Z,14.29
2019-04-27T00:58:53.644Z,14.18
2019-04-27T01:02:13.915Z,14.07
2019-04-27T01:05:17.626Z,14.04
2019-04-27T01:08:19.639Z,13.93
2019-04-27T01:11:22.671Z,13.90
2019-04-27T01:14:25.322Z,13.85
2019-04-27T01:17:28.813Z,13.78
2019-04-27T01:20:30.727Z,13.70
2019-04-27T01:23:32.660Z,13.66
2019-04-27T01:26:49.951Z,13.64
2019-04-27T01:29:53.905Z,13.61
2019-04-27T01:32:55.860Z,13.53
2019-04-27T01:35:58.899Z,13.49
2019-04-27T01:39:00.935Z,13.51
2019-04-27T01:42:03.270Z,13.48
2019-04-27T01:45:08.526Z,13.44
2019-04-27T01:48:22.450Z,13.49
2019-04-27T01:51:14.346Z,13.49
2019-04-27T01:54:19.378Z,13.54
2019-04-27T01:57:21.743Z,13.59
2019-04-27T02:00:29.517Z,13.67
2019-04-27T02:03:49.916Z,13.71
2019-04-27T02:06:54.771Z,13.73
2019-04-27T02:09:56.702Z,13.69
2019-04-27T02:12:58.775Z,13.70
2019-04-27T02:16:00.774Z,13.80
2019-04-27T02:19:02.593Z,13.82
2019-04-27T02:22:04.612Z,13.76
2019-04-27T02:25:06.719Z,13.69
2019-04-27T02:28:16.479Z,13.72
2019-04-27T02:31:40.336Z,13.73
2019-04-27T02:34:53.015Z,13.67
2019-04-27T02:37:54.953Z,13.68
2019-04-27T02:41:00.549Z,13.68
2019-04-27T02:44:11.371Z,13.71
2019-04-27T02:47:13.383Z,13.72
2019-04-27T02:50:15.333Z,13.73
2019-04-27T02:53:19.699Z,13.72
2019-04-27T02:56:21.509Z,13.72
2019-04-27T02:59:23.460Z,13.72
2019-04-27T03:02:29.719Z,13.78
2019-04-27T03:05:31.015Z,13.76
2019-04-27T03:08:32.961Z,13.75
2019-04-27T03:11:36.310Z,13.78
2019-04-27T03:14:50.563Z,13.77
2019-04-27T03:17:54.461Z,13.82
2019-04-27T03:21:00.401Z,13.87
2019-04-27T03:24:02.327Z,13.83
2019-04-27T03:27:06.058Z,13.79
2019-04-27T03:30:12.224Z,13.70
2019-04-27T03:33:14.657Z,13.53
2019-04-27T03:36:16.567Z,13.46
2019-04-27T03:39:20.002Z,13.51
2019-04-27T03:42:22.524Z,13.53
2019-04-27T03:45:24.495Z,13.57
2019-04-27T03:48:26.467Z,13.58
2019-04-27T03:51:36.329Z,13.65
2019-04-27T03:54:40.322Z,13.66
2019-04-27T03:57:44.080Z,13.66
2019-04-27T04:00:45.984Z,13.69
2019-04-27T04:03:50.049Z,13.58
2019-04-27T04:06:51.856Z,13.56
2019-04-27T04:09:53.786Z,13.59
2019-04-27T04:13:01.650Z,13.59
2019-04-27T04:16:10.796Z,13.55
2019-04-27T04:19:13.431Z,13.50
2019-04-27T04:22:15.376Z,13.49
2019-04-27T04:25:17.287Z,13.40
2019-04-27T04:28:20.098Z,13.38
2019-04-27T04:31:23.744Z,13.35
2019-04-27T04:34:25.706Z,13.23
2019-04-27T04:37:29.581Z,13.20
2019-04-27T04:40:33.788Z,13.22
2019-04-27T04:43:54.017Z,13.21
2019-04-27T04:47:00.115Z,13.20
2019-04-27T04:50:11.373Z,13.09
2019-04-27T04:53:06.388Z,12.99
2019-04-27T04:56:09.020Z,13.00
2019-04-27T04:59:12.191Z,13.00
2019-04-27T05:02:14.206Z,13.01
2019-04-27T05:05:16.167Z,13.01
2019-04-27T05:08:19.060Z,12.95
2019-04-27T05:11:21.102Z,12.95
2019-04-27T05:14:22.993Z,12.98
2019-04-27T05:17:26.230Z,13.06
2019-04-27T05:20:48.563Z,13.09
2019-04-27T05:23:50.701Z,13.11
2019-04-27T05:26:52.608Z,13.02
2019-04-27T05:29:54.591Z,12.95
2019-04-27T05:32:56.494Z,12.96
2019-04-27T05:35:59.093Z,12.91
2019-04-27T05:39:01.532Z,12.99
2019-04-27T05:42:06.101Z,13.01
2019-04-27T05:45:15.321Z,12.98
2019-04-27T05:48:27.441Z,12.88
2019-04-27T05:51:22.460Z,12.82
2019-04-27T05:54:24.360Z,12.78
2019-04-27T05:57:26.485Z,12.78
2019-04-27T06:00:29.287Z,12.77
2019-04-27T06:03:31.582Z,12.81
2019-04-27T06:06:33.571Z,12.85
2019-04-27T06:09:35.507Z,12.85
2019-04-27T06:12:37.417Z,12.83
2019-04-27T06:15:39.345Z,12.79
2019-04-27T06:18:41.302Z,12.75
2019-04-27T06:21:43.258Z,12.72
2019-04-27T06:24:46.141Z,12.76
2019-04-27T06:27:49.535Z,12.68
2019-04-27T06:30:51.980Z,12.66
2019-04-27T06:33:53.910Z,12.66
2019-04-27T06:36:55.950Z,12.81
2019-04-27T06:39:59.685Z,12.93
2019-04-27T06:43:01.933Z,13.08
2019-04-27T06:46:03.902Z,13.26
2019-04-27T06:49:05.938Z,13.22
2019-04-27T06:52:08.645Z,13.20
2019-04-27T06:55:10.742Z,13.20
2019-04-27T06:58:12.756Z,13.23
2019-04-27T07:01:14.682Z,13.27
2019-04-27T07:04:16.591Z,13.35
2019-04-27T07:07:19.635Z,13.35
2019-04-27T07:10:21.521Z,13.43
2019-04-27T07:13:23.424Z,13.57
2019-04-27T07:16:25.325Z,13.49
2019-04-27T07:19:28.948Z,13.53
2019-04-27T07:22:30.904Z,13.70
2019-04-27T07:25:32.859Z,13.76
2019-04-27T07:28:35.341Z,13.74
2019-04-27T07:31:40.039Z,13.63
2019-04-27T07:34:41.976Z,13.56
2019-04-27T07:37:44.000Z,13.55
2019-04-27T07:40:45.898Z,13.65
2019-04-27T07:43:50.381Z,13.67
2019-04-27T07:47:03.296Z,13.69
2019-04-27T07:50:05.477Z,13.82
2019-04-27T07:53:08.609Z,13.88
2019-04-27T07:56:10.996Z,13.84
2019-04-27T07:59:12.939Z,13.84
2019-04-27T08:02:14.923Z,13.76
2019-04-27T08:05:16.809Z,13.68
2019-04-27T08:08:19.054Z,13.63
2019-04-27T08:11:21.343Z,13.63
2019-04-27T08:14:23.285Z,13.61
2019-04-27T08:17:25.159Z,13.52
2019-04-27T08:20:29.261Z,13.49
2019-04-27T08:23:31.025Z,13.48
2019-04-27T08:26:37.327Z,13.48
2019-04-27T08:29:41.152Z,13.53
2019-04-27T08:32:49.715Z,13.64
2019-04-27T08:35:51.972Z,13.62
2019-04-27T08:38:53.947Z,13.68
2019-04-27T08:41:55.935Z,13.71
2019-04-27T08:44:59.392Z,13.83
2019-04-27T08:48:01.676Z,13.90
2019-04-27T08:51:03.619Z,14.01
2019-04-27T08:54:06.083Z,14.08
2019-04-27T08:57:09.766Z,14.03
2019-04-27T09:00:12.173Z,14.08
2019-04-27T09:03:14.149Z,14.07
2019-04-27T09:06:16.111Z,14.00
2019-04-27T09:09:29.530Z,14.01
2019-04-27T09:12:51.838Z,14.13
2019-04-27T09:16:00.110Z,14.21
2019-04-27T09:19:16.077Z,14.16
2019-04-27T09:22:19.295Z,14.17
2019-04-27T09:25:21.876Z,14.17
2019-04-27T09:28:23.840Z,14.22
2019-04-27T09:31:25.836Z,14.23
2019-04-27T09:34:27.883Z,14.23
2019-04-27T09:37:29.833Z,14.21
2019-04-27T09:40:32.539Z,14.29
2019-04-27T09:43:34.497Z,14.19
2019-04-27T09:46:36.471Z,14.25
2019-04-27T09:49:38.651Z,14.30
2019-04-27T09:52:40.836Z,14.33
2019-04-27T09:55:44.131Z,14.36
2019-04-27T09:58:47.087Z,14.43
2019-04-27T10:01:49.256Z,14.47
2019-04-27T10:04:51.573Z,14.36
2019-04-27T10:07:53.600Z,14.32
2019-04-27T10:10:56.660Z,14.28
2019-04-27T10:13:59.120Z,14.33
2019-04-27T10:17:01.076Z,14.26
2019-04-27T10:20:05.970Z,14.27
2019-04-27T10:23:08.162Z,14.28
2019-04-27T10:26:10.116Z,14.30
2019-04-27T10:29:12.062Z,14.34
2019-04-27T10:32:13.992Z,14.47
2019-04-27T10:35:16.135Z,14.56
2019-04-27T10:38:18.313Z,14.63
2019-04-27T10:41:20.413Z,14.62
2019-04-27T10:44:22.388Z,14.51
2019-04-27T10:47:25.975Z,14.50
2019-04-27T10:50:28.346Z,14.51
2019-04-27T10:53:30.284Z,14.46
2019-04-27T10:56:32.487Z,14.55
2019-04-27T10:59:36.023Z,14.74
2019-04-27T11:02:38.250Z,14.90
2019-04-27T11:05:51.677Z,15.18
2019-04-27T11:08:53.662Z,15.43
2019-04-27T11:11:56.598Z,15.77
2019-04-27T11:14:59.328Z,16.27
2019-04-27T11:18:01.238Z,16.70
2019-04-27T11:21:03.174Z,16.95
2019-04-27T11:24:05.116Z,17.15
2019-04-27T11:27:07.069Z,17.06
2019-04-27T11:30:10.535Z,16.83
2019-04-27T11:33:12.510Z,16.60
2019-04-27T11:36:25.647Z,16.29
2019-04-27T11:39:27.749Z,16.24
2019-04-27T11:42:29.821Z,16.09
2019-04-27T11:45:31.761Z,16.06
2019-04-27T11:48:33.833Z,16.09
2019-04-27T11:51:36.605Z,16.16
2019-04-27T11:54:38.881Z,16.44
2019-04-27T11:57:41.035Z,16.76
2019-04-27T12:00:43.061Z,16.89
2019-04-27T12:03:45.066Z,16.93
2019-04-27T12:06:46.949Z,16.86
2019-04-27T12:09:48.887Z,16.82
2019-04-27T12:12:50.984Z,16.98
2019-04-27T12:15:52.965Z,16.97
2019-04-27T12:18:56.373Z,16.89
2019-04-27T12:21:58.781Z,16.76
2019-04-27T12:25:00.712Z,16.74
2019-04-27T12:28:10.193Z,16.74
2019-04-27T12:31:14.005Z,16.81
2019-04-27T12:34:16.351Z,16.91
2019-04-27T12:37:19.997Z,17.01
2019-04-27T12:40:21.913Z,16.96
2019-04-27T12:43:24.034Z,16.92
2019-04-27T12:46:25.967Z,16.79
2019-04-27T12:49:27.955Z,16.79
2019-04-27T12:52:29.874Z,16.79
2019-04-27T12:55:40.348Z,16.86
2019-04-27T12:58:50.251Z,16.93
2019-04-27T13:01:52.196Z,17.03
2019-04-27T13:04:54.133Z,17.02
2019-04-27T13:07:56.115Z,17.09
2019-04-27T13:10:58.108Z,17.29
2019-04-27T13:14:01.469Z,17.46
2019-04-27T13:17:03.442Z,17.41
2019-04-27T13:20:06.462Z,17.35
2019-04-27T13:23:08.415Z,17.42
2019-04-27T13:26:10.341Z,17.49
2019-04-27T13:29:12.255Z,17.62
2019-04-27T13:32:16.047Z,17.69
2019-04-27T13:35:18.108Z,17.84
2019-04-27T13:38:21.256Z,17.95
2019-04-27T13:41:30.406Z,18.13
2019-04-27T13:44:27.148Z,18.38
2019-04-27T13:47:30.987Z,18.60
2019-04-27T13:50:37.768Z,18.81
2019-04-27T13:53:41.459Z,18.97
2019-04-27T13:56:43.371Z,19.08
2019-04-27T13:59:45.513Z,19.16
2019-04-27T14:02:47.436Z,19.18
2019-04-27T14:05:49.534Z,19.36
2019-04-27T14:08:51.524Z,19.53
2019-04-27T14:11:55.302Z,19.82
2019-04-27T14:14:58.979Z,20.07
2019-04-27T14:18:01.600Z,20.18
2019-04-27T14:21:04.721Z,20.38
2019-04-27T14:24:06.737Z,20.38
2019-04-27T14:27:09.274Z,20.32
2019-04-27T14:30:13.506Z,20.43
2019-04-27T14:33:16.263Z,20.62
2019-04-27T14:36:18.352Z,20.69
2019-04-27T14:39:20.534Z,20.38
2019-04-27T14:42:22.739Z,20.23
2019-04-27T14:45:24.815Z,20.16
2019-04-27T14:48:29.473Z,20.08
2019-04-27T14:51:31.848Z,19.99
2019-04-27T14:54:46.039Z,19.86
2019-04-27T14:57:39.440Z,19.66
2019-04-27T15:00:41.856Z,19.53
2019-04-27T15:03:43.786Z,19.37
2019-04-27T15:06:46.743Z,19.34
2019-04-27T15:09:49.723Z,19.41
2019-04-27T15:12:55.363Z,19.46
2019-04-27T15:15:56.673Z,19.48
2019-04-27T15:19:02.425Z,19.38
2019-04-27T15:22:06.164Z,19.19
2019-04-27T15:25:13.013Z,19.02
2019-04-27T15:28:16.776Z,18.86
2019-04-27T15:31:29.683Z,18.74
2019-04-27T15:34:35.590Z,18.64
2019-04-27T15:37:41.863Z,18.63
2019-04-27T15:40:54.317Z,18.56
2019-04-27T15:43:52.159Z,18.40
2019-04-27T15:46:54.151Z,18.29
2019-04-27T15:49:56.083Z,18.33
2019-04-27T15:52:58.077Z,18.42
2019-04-27T15:56:01.597Z,18.45
2019-04-27T15:59:04.033Z,18.54
2019-04-27T16:02:11.762Z,18.42
2019-04-27T16:05:10.371Z,18.44
2019-04-27T16:08:15.261Z,18.43
2019-04-27T16:11:19.566Z,18.47
2019-04-27T16:14:20.542Z,18.46
2019-04-27T16:17:23.537Z,18.50
2019-04-27T16:20:30.218Z,18.48
2019-04-27T16:23:33.646Z,18.47
2019-04-27T16:26:33.947Z,18.48
2019-04-27T16:29:36.776Z,18.43
2019-04-27T16:32:40.382Z,18.46
2019-04-27T16:35:44.341Z,18.49
2019-04-27T16:38:50.675Z,18.55
2019-04-27T16:41:52.612Z,18.50
2019-04-27T16:44:54.493Z,18.51
2019-04-27T16:47:57.556Z,18.38
2019-04-27T16:51:01.597Z,18.34
2019-04-27T16:54:03.620Z,18.15
2019-04-27T16:57:07.919Z,18.06
2019-04-27T17:00:14.428Z,18.02
2019-04-27T17:03:18.081Z,18.01
2019-04-27T17:06:21.601Z,17.88
2019-04-27T17:09:23.811Z,17.68
2019-04-27T17:12:29.918Z,17.54
2019-04-27T17:15:53.645Z,17.42
2019-04-27T17:18:57.813Z,17.25
2019-04-27T17:21:59.012Z,17.02
2019-04-27T17:25:00.924Z,16.88
2019-04-27T17:28:07.511Z,16.78
2019-04-27T17:31:12.874Z,16.68
2019-04-27T17:34:13.737Z,16.60
2019-04-27T17:37:15.605Z,16.52
2019-04-27T17:40:17.527Z,16.49
2019-04-27T17:43:19.435Z,16.45
2019-04-27T17:46:22.033Z,16.43
2019-04-27T17:49:24.623Z,16.38
2019-04-27T17:52:27.125Z,16.32
2019-04-27T17:55:29.112Z,16.20
2019-04-27T17:58:31.042Z,16.16
2019-04-27T18:01:32.976Z,16.17
2019-04-27T18:04:37.736Z,16.13
2019-04-27T18:07:40.396Z,16.01
2019-04-27T18:10:43.348Z,15.66
2019-04-27T18:13:45.297Z,15.50
2019-04-27T18:16:48.223Z,15.44
2019-04-27T18:19:52.427Z,15.36
2019-04-27T18:23:02.898Z,15.31
2019-04-27T18:26:07.171Z,15.28
2019-04-27T18:29:09.324Z,15.13
2019-04-27T18:32:11.397Z,15.12
2019-04-27T18:35:14.859Z,15.14
2019-04-27T18:38:17.738Z,15.14
2019-04-27T18:41:22.618Z,15.01
2019-04-27T18:44:30.512Z,14.80
2019-04-27T18:47:31.245Z,14.68
2019-04-27T18:50:38.439Z,14.41
2019-04-27T18:53:40.513Z,14.10
2019-04-27T18:56:42.548Z,13.88
2019-04-27T18:59:44.604Z,13.72
2019-04-27T19:02:48.257Z,13.64
2019-04-27T19:05:50.500Z,13.63
2019-04-27T19:08:54.733Z,13.58
2019-04-27T19:11:56.868Z,13.41
2019-04-27T19:15:03.007Z,13.30
2019-04-27T19:18:06.225Z,13.20
2019-04-27T19:21:11.267Z,13.16
2019-04-27T19:24:14.316Z,13.07
2019-04-27T19:27:21.199Z,13.00
2019-04-27T19:30:28.039Z,12.97
2019-04-27T19:33:30.872Z,12.97
2019-04-27T19:36:35.388Z,12.83
2019-04-27T19:39:40.917Z,12.77
2019-04-27T19:42:43.342Z,12.68
2019-04-27T19:45:48.229Z,12.69
2019-04-27T19:48:51.621Z,12.66
2019-04-27T19:51:54.831Z,12.59
2019-04-27T19:55:00.539Z,12.52
2019-04-27T19:58:02.469Z,12.58
2019-04-27T20:01:11.895Z,12.64
2019-04-27T20:04:18.520Z,12.56
2019-04-27T20:07:20.545Z,12.54
2019-04-27T20:10:22.542Z,12.50
2019-04-27T20:13:27.517Z,12.50
2019-04-27T20:16:29.527Z,12.53
2019-04-27T20:19:35.184Z,12.53
2019-04-27T20:22:37.202Z,12.47
2019-04-27T20:25:39.192Z,12.50
2019-04-27T20:28:41.504Z,12.52
2019-04-27T20:31:43.898Z,12.50
2019-04-27T20:34:46.234Z,12.52
2019-04-27T20:37:48.168Z,12.66
2019-04-27T20:40:51.073Z,12.69
2019-04-27T20:43:54.265Z,12.67
2019-04-27T20:46:56.514Z,12.68
2019-04-27T20:49:58.439Z,12.68
2019-04-27T20:53:02.267Z,12.68
2019-04-27T20:56:04.722Z,12.67
2019-04-27T20:59:06.658Z,12.67
2019-04-27T21:02:27.364Z,12.64
2019-04-27T21:05:31.173Z,12.60
2019-04-27T21:08:35.262Z,12.57
2019-04-27T21:11:46.670Z,12.61
2019-04-27T21:14:49.777Z,12.61
2019-04-27T21:17:51.723Z,12.57
2019-04-27T21:20:53.816Z,12.50
2019-04-27T21:23:56.877Z,12.54
2019-04-27T21:26:59.597Z,12.52
2019-04-27T21:30:02.762Z,12.52
2019-04-27T21:33:05.344Z,12.46
2019-04-27T21:36:07.227Z,12.51
2019-04-27T21:39:09.126Z,12.45
2019-04-27T21:42:12.541Z,12.45
2019-04-27T21:45:17.291Z,12.38
2019-04-27T21:48:21.063Z,12.36
2019-04-27T21:51:23.016Z,12.32
2019-04-27T21:54:26.956Z,12.34
2019-04-27T21:57:28.814Z,12.36
2019-04-27T22:00:42.489Z,12.33
2019-04-27T22:03:46.056Z,12.29
2019-04-27T22:06:47.954Z,12.20
2019-04-27T22:09:51.680Z,12.15
2019-04-27T22:12:53.749Z,12.17
2019-04-27T22:15:55.694Z,12.20
2019-04-27T22:18:57.631Z,12.14
2019-04-27T22:22:01.431Z,12.08
2019-04-27T22:25:06.816Z,12.05
2019-04-27T22:28:08.729Z,11.96
2019-04-27T22:31:12.355Z,11.99
2019-04-27T22:34:14.564Z,12.05
2019-04-27T22:37:17.510Z,12.10
2019-04-27T22:40:38.353Z,12.08
2019-04-27T22:43:44.557Z,12.01
2019-04-27T22:46:48.314Z,11.97
2019-04-27T22:49:50.262Z,11.91
2019-04-27T22:52:52.247Z,11.92
2019-04-27T22:56:13.507Z,11.96
2019-04-27T22:59:32.879Z,12.00
2019-04-27T23:02:36.686Z,11.98
2019-04-27T23:05:38.696Z,11.89
2019-04-27T23:08:41.509Z,11.83
2019-04-27T23:11:44.040Z,11.79
2019-04-27T23:14:46.042Z,11.73
2019-04-27T23:17:51.760Z,11.69
2019-04-27T23:20:54.137Z,11.68
2019-04-27T23:23:56.056Z,11.63
2019-04-27T23:26:58.099Z,11.62
2019-04-27T23:30:01.433Z,11.62
2019-04-27T23:33:03.763Z,11.57
2019-04-27T23:36:05.702Z,11.55
2019-04-27T23:39:07.615Z,11.52
2019-04-27T23:42:11.524Z,11.53
2019-04-27T23:45:13.614Z,11.57
2019-04-27T23:48:15.559Z,11.61
2019-04-27T23:51:22.297Z,11.69
2019-04-27T23:54:24.188Z,11.75
2019-04-27T23:57:26.219Z,11.75
